Volgo-balt 229 — UHZF — position and weather

sailwx.info

Track history (hours):
 
Tides and Currents Weather Stations Pressure Air Temp Water Temp Dewpoint Dewpoint Depression Visibility Wind Speed Wind Dir Waves Ship Positions

Volgo-balt 229

Last reported at 2016-Apr-30 12:33 UTC. Time now 2016-Apr-30 13:04 UTC.
Position N 59°56' E 030°17'.

Length 113 m; draft 2.6 m.

Type: Ship. MMSI: 273336300.

Date/timePositionNaut miles runAvg speedWind from/ knotsBaromVisibWave heightAir tempDewpointWater temp
2016-Apr-30 12:33N 59°56' E 030°17'2 2.0
2016-Apr-30 11:33N 59°55' E 030°14'0 0.0
2016-Apr-30 10:33N 59°55' E 030°14'0 0.0
2016-Apr-30 09:33N 59°55' E 030°14'0 0.0
2016-Apr-30 08:33N 59°55' E 030°14'5 4.0
2016-Apr-30 07:19N 59°54' E 030°04'6 8.1
2016-Apr-30 06:33N 59°57' E 029°53'34 6.8
2016-Apr-30 01:33N 60°02' E 028°46'6 6.2
2016-Apr-30 00:33N 60°02' E 028°34'6 6.2
2016-Apr-29 23:33N 60°04' E 028°22'6 6.2
2016-Apr-29 22:33N 60°07' E 028°11'6 6.3
2016-Apr-29 21:32N 60°09' E 027°59'30 5.9
2016-Apr-29 16:22N 59°58' E 027°03'5 6.5
2016-Apr-29 15:33N 59°58' E 026°52'6 6.5
2016-Apr-29 14:33N 59°59' E 026°39'7 6.5
2016-Apr-29 13:33N 59°57' E 026°27'6 6.3
2016-Apr-29 12:33N 59°55' E 026°15'6 6.3
2016-Apr-29 11:33N 59°54' E 026°03'9 6.1
2016-Apr-29 10:07N 59°51' E 025°46'64 5.9
2016-Apr-28 23:19N 59°32' E 023°45'11 6.2
2016-Apr-28 21:31N 59°27' E 023°25'  
Track history (hours):
 
Tides and Currents Weather Stations Pressure Air Temp Water Temp Dewpoint Dewpoint Depression Visibility Wind Speed Wind Dir Waves Ship Positions

Volgo-balt 229

Last reported at 2016-Apr-30 12:33 UTC. Time now 2016-Apr-30 13:04 UTC.
Position N 59°56' E 030°17'.

Length 113 m; draft 2.6 m.

Type: Ship. MMSI: 273336300.

Date/timePositionNaut miles runAvg speedWind from/ knotsBaromVisibWave heightAir tempDewpointWater temp
2016-Apr-30 12:33N 59°56' E 030°17'2 2.0
2016-Apr-30 11:33N 59°55' E 030°14'0 0.0
2016-Apr-30 10:33N 59°55' E 030°14'0 0.0
2016-Apr-30 09:33N 59°55' E 030°14'0 0.0
2016-Apr-30 08:33N 59°55' E 030°14'5 4.0
2016-Apr-30 07:19N 59°54' E 030°04'6 8.1
2016-Apr-30 06:33N 59°57' E 029°53'34 6.8
2016-Apr-30 01:33N 60°02' E 028°46'6 6.2
2016-Apr-30 00:33N 60°02' E 028°34'6 6.2
2016-Apr-29 23:33N 60°04' E 028°22'6 6.2
2016-Apr-29 22:33N 60°07' E 028°11'6 6.3
2016-Apr-29 21:32N 60°09' E 027°59'30 5.9
2016-Apr-29 16:22N 59°58' E 027°03'5 6.5
2016-Apr-29 15:33N 59°58' E 026°52'6 6.5
2016-Apr-29 14:33N 59°59' E 026°39'7 6.5
2016-Apr-29 13:33N 59°57' E 026°27'6 6.3
2016-Apr-29 12:33N 59°55' E 026°15'6 6.3
2016-Apr-29 11:33N 59°54' E 026°03'9 6.1
2016-Apr-29 10:07N 59°51' E 025°46'64 5.9
2016-Apr-28 23:19N 59°32' E 023°45'11 6.2
2016-Apr-28 21:31N 59°27' E 023°25'  

Dump ship's entire track history